首页
METAR-TAF:

METAR-TAF

机场 :

尤里馬瓜斯, 秘鲁

纬度: 05-54S, 经度: 076-05W, 海拔: 179米

当前天气观测

该预报发布于12小时和34分钟前的23:00 UTC
风速10节,风向
温度 25°C
湿度 94%
气压 1012 hPa
能見度: 7000
散云层高于1000英尺
散云层高于7000英尺
小雨

METAR: SPMS 232300Z 01010KT 7000 -RA SCT010 SCT070 25/24 Q1012 RMK BIRD HAZARD RWY09/27 PP010

时间: 06:34 (11:34 UTC)

预报

该预报发布于18小时和34分钟前的17:00 UTC
预报有效从23日的 18点(UTC)到 24日的 18点(UTC)
风速节,风向
能见度10公里或以上
少量云层高于2000英尺
散云层高于10000英尺
短暂存在
从 23日的 18点(UTC)到 23日的 22点(UTC)
风速10节,风向北转东北
能見度: 4000
多云层高于2000英尺
多云层高于8000英尺
成为
从 23日的 22点(UTC)到 24日的 01点(UTC)
风速4节,风向
能见度10公里或以上
散云层高于3000英尺

TAF: SPMS 231700Z 2318/2418 00000KT 9999 FEW020 SCT100 TX32/2320Z TN23/2411Z TEMPO 2318/2322 03010KT 4000 RA BKN020 BKN080 BECMG 2322/2401 35004KT 9999 SCT030

超过4000个机场的气象观测和天气预报(METAR&TAF报告)。

可查询的气象台以黄色和红色小点在地图上表示。

将鼠标移到小点上方,可查看气象台名称。

然后点击查看天气观测和预报。

如需切换地图:点击带黑十字的绿色按钮放大地图;点击带横线的绿色按钮缩小地图;或者点击绿色箭头查看邻近地区的地图。


METAR-TAF: